Time;durP1;ratioP1;P1;durP2;ratioP2;P2;SDS_P1;SDS_P2;PMS_P1;PMS_P2;Temp;Humidity;BMP_temperature;BMP_pressure;BME280_temperature;BME280_humidity;BME280_pressure;Samples;Min_cycle;Max_cycle;Signal;HPM_P1;HPM_P2
2023/12/11 00:01:37;;;;;;;135.38;59.00;;;18.20;67.20;;;;;;5053146;28;20066;-36
2023/12/11 00:04:03;;;;;;;135.95;58.63;;;18.10;67.10;;;;;;5047310;28;20124;-35
2023/12/11 00:06:29;;;;;;;137.95;58.92;;;18.20;67.10;;;;;;5048197;28;20095;-35
2023/12/11 00:08:54;;;;;;;135.43;59.33;;;18.20;66.90;;;;;;5047084;28;20046;-37
2023/12/11 00:11:20;;;;;;;135.25;58.15;;;18.20;67.00;;;;;;5047088;28;20045;-36
2023/12/11 00:13:46;;;;;;;137.45;59.10;;;18.10;66.80;;;;;;5048024;28;20457;-37
2023/12/11 00:16:11;;;;;;;137.77;58.90;;;18.10;66.90;;;;;;5050084;28;20123;-36
2023/12/11 00:18:37;;;;;;;139.85;59.35;;;18.10;66.90;;;;;;5053925;28;20057;-37
2023/12/11 00:21:03;;;;;;;136.15;58.70;;;18.10;67.00;;;;;;5050251;28;20049;-36
2023/12/11 00:23:28;;;;;;;136.10;59.00;;;18.10;67.20;;;;;;5049696;28;20037;-36
2023/12/11 00:25:54;;;;;;;136.50;58.97;;;18.10;67.10;;;;;;5048633;28;20089;-41
2023/12/11 00:28:20;;;;;;;136.20;58.85;;;18.00;67.10;;;;;;5047645;28;20037;-36
2023/12/11 00:30:45;;;;;;;137.60;59.13;;;18.00;67.10;;;;;;5044923;28;20076;-45
2023/12/11 00:33:11;;;;;;;138.07;58.90;;;18.00;67.10;;;;;;5042164;28;20049;-44
2023/12/11 00:35:37;;;;;;;136.77;59.42;;;18.00;67.10;;;;;;5048192;28;20127;-45
2023/12/11 00:38:02;;;;;;;139.10;59.33;;;17.90;67.20;;;;;;5048513;28;20045;-44
2023/12/11 00:40:28;;;;;;;136.20;58.63;;;18.00;67.40;;;;;;5049956;28;20041;-44
2023/12/11 00:42:54;;;;;;;135.77;58.38;;;17.90;67.20;;;;;;5052888;28;20057;-45
2023/12/11 00:45:19;;;;;;;137.43;58.80;;;17.90;67.30;;;;;;5045949;28;20124;-46
2023/12/11 00:47:45;;;;;;;135.70;58.35;;;17.90;67.30;;;;;;5044964;28;20828;-45
2023/12/11 00:50:10;;;;;;;136.27;58.75;;;17.90;67.40;;;;;;5046294;28;20617;-53
2023/12/11 00:52:36;;;;;;;134.95;58.47;;;17.80;67.40;;;;;;5049978;28;20454;-45
2023/12/11 00:55:02;;;;;;;136.65;58.55;;;17.90;67.20;;;;;;5053638;28;20400;-45
2023/12/11 00:57:28;;;;;;;136.32;58.50;;;17.90;67.30;;;;;;5053102;28;20163;-45
2023/12/11 00:59:53;;;;;;;135.13;58.78;;;17.80;67.20;;;;;;5052896;28;20069;-46
2023/12/11 01:02:19;;;;;;;137.00;59.22;;;17.80;67.20;;;;;;5048772;28;20654;-36
2023/12/11 01:04:45;;;;;;;137.88;59.15;;;17.80;67.40;;;;;;5050910;28;20033;-37
2023/12/11 01:07:11;;;;;;;135.95;59.03;;;17.80;67.30;;;;;;5055907;28;20130;-35
2023/12/11 01:09:37;;;;;;;137.43;58.67;;;17.80;67.20;;;;;;5051871;28;20546;-35
2023/12/11 01:12:03;;;;;;;137.65;59.28;;;17.80;67.20;;;;;;5055226;28;20481;-34
2023/12/11 01:14:30;;;;;;;136.93;58.47;;;17.80;67.30;;;;;;5053013;28;20036;-35
2023/12/11 01:16:56;;;;;;;136.32;59.15;;;17.70;67.40;;;;;;5052850;28;20044;-35
2023/12/11 01:19:21;;;;;;;137.88;59.45;;;17.70;67.40;;;;;;5056425;28;20049;-35
2023/12/11 01:21:47;;;;;;;134.68;58.25;;;17.70;67.40;;;;;;5055795;28;20042;-35
2023/12/11 01:24:12;;;;;;;137.02;58.47;;;17.70;67.30;;;;;;5052123;28;20030;-37
2023/12/11 01:26:38;;;;;;;134.13;58.75;;;17.70;67.50;;;;;;5048709;28;20538;-36
2023/12/11 01:29:04;;;;;;;136.77;57.90;;;17.70;67.50;;;;;;5054773;28;20041;-35
2023/12/11 01:31:30;;;;;;;135.65;58.30;;;17.70;67.50;;;;;;5051769;28;20043;-36
2023/12/11 01:33:56;;;;;;;135.90;58.33;;;17.70;67.40;;;;;;5054061;28;20708;-36
2023/12/11 01:36:22;;;;;;;134.10;57.55;;;17.70;67.50;;;;;;5053233;28;20037;-35
2023/12/11 01:38:50;;;;;;;135.57;58.08;;;17.70;67.40;;;;;;5056605;28;20533;-36
2023/12/11 01:41:16;;;;;;;134.32;57.78;;;17.60;67.50;;;;;;5050403;28;20131;-36
2023/12/11 01:43:50;;;;;;;134.63;58.53;;;17.60;67.60;;;;;;5053202;28;20100;-36
2023/12/11 01:46:18;;;;;;;134.18;57.97;;;17.60;67.50;;;;;;5053953;28;20079;-36
2023/12/11 01:48:44;;;;;;;136.05;58.38;;;17.60;67.50;;;;;;5055242;28;20045;-35
2023/12/11 01:51:10;;;;;;;138.00;58.92;;;17.60;67.50;;;;;;5055658;28;20041;-35
2023/12/11 01:53:36;;;;;;;135.38;58.65;;;17.60;67.60;;;;;;5045729;28;20043;-37
2023/12/11 01:56:02;;;;;;;137.35;57.85;;;17.60;67.60;;;;;;5049632;28;20151;-37
2023/12/11 01:58:29;;;;;;;137.90;57.95;;;17.60;67.60;;;;;;5055906;28;20049;-36
2023/12/11 02:00:55;;;;;;;136.10;58.33;;;17.60;67.50;;;;;;5054399;28;20043;-35
2023/12/11 02:03:22;;;;;;;135.70;57.80;;;17.60;67.50;;;;;;5045235;28;20033;-36
2023/12/11 02:05:49;;;;;;;135.70;57.90;;;17.50;67.50;;;;;;5046082;28;20103;-36
2023/12/11 02:08:16;;;;;;;136.45;57.97;;;17.50;67.50;;;;;;5053182;28;20589;-37
2023/12/11 02:10:41;;;;;;;135.15;58.70;;;17.60;67.60;;;;;;5052501;28;20106;-36
2023/12/11 02:13:08;;;;;;;134.57;58.28;;;17.50;67.50;;;;;;5054921;28;20041;-36
2023/12/11 02:15:41;;;;;;;135.35;58.05;;;17.50;67.50;;;;;;5054358;28;20113;-36
2023/12/11 02:18:08;;;;;;;136.05;57.95;;;17.50;68.30;;;;;;5048419;28;20037;-36
2023/12/11 02:20:35;;;;;;;135.63;57.72;;;17.50;67.50;;;;;;5052834;28;20059;-35
2023/12/11 02:23:04;;;;;;;134.75;57.53;;;17.50;67.60;;;;;;5051359;28;20809;-36
2023/12/11 02:25:31;;;;;;;134.20;58.33;;;17.50;67.60;;;;;;5051324;28;20050;-37
2023/12/11 02:27:57;;;;;;;136.18;57.63;;;17.40;67.60;;;;;;5053444;28;20041;-38
2023/12/11 02:30:24;;;;;;;134.52;58.28;;;17.40;67.70;;;;;;5049351;28;20048;-36
2023/12/11 02:32:53;;;;;;;133.55;57.22;;;17.40;67.80;;;;;;5050910;28;20044;-36
2023/12/11 02:35:18;;;;;;;141.13;58.65;;;17.40;67.70;;;;;;5050460;28;20037;-36
2023/12/11 02:37:44;;;;;;;137.82;58.45;;;17.40;67.70;;;;;;5050998;28;20095;-36
2023/12/11 02:40:10;;;;;;;133.05;57.45;;;17.40;67.80;;;;;;5054214;28;20655;-45
2023/12/11 02:42:36;;;;;;;133.25;56.90;;;17.30;67.70;;;;;;5050713;28;20057;-45
2023/12/11 02:45:01;;;;;;;133.07;57.25;;;17.40;67.90;;;;;;5052129;28;20500;-44
2023/12/11 02:47:27;;;;;;;132.20;57.63;;;17.30;67.70;;;;;;5052777;28;20148;-44
2023/12/11 02:49:53;;;;;;;136.68;58.25;;;17.40;67.80;;;;;;5057738;28;20633;-44
2023/12/11 02:52:18;;;;;;;136.30;57.80;;;17.30;67.80;;;;;;5059875;28;20048;-44
2023/12/11 02:54:44;;;;;;;133.95;57.92;;;17.30;67.70;;;;;;5048771;28;20447;-45
2023/12/11 02:57:10;;;;;;;133.65;58.08;;;17.30;67.80;;;;;;5053699;28;20672;-45
2023/12/11 02:59:36;;;;;;;131.85;57.38;;;17.30;67.80;;;;;;5051749;28;20040;-44
2023/12/11 03:02:03;;;;;;;138.35;57.60;;;17.30;67.80;;;;;;5051634;28;20068;-44
2023/12/11 03:04:29;;;;;;;137.27;59.10;;;17.30;67.80;;;;;;5050018;28;20037;-45
2023/12/11 03:06:54;;;;;;;135.38;57.58;;;17.30;67.90;;;;;;5054122;28;20546;-44
2023/12/11 03:09:20;;;;;;;135.40;58.53;;;17.30;67.90;;;;;;5055141;28;20114;-44
2023/12/11 03:11:46;;;;;;;133.45;57.58;;;17.20;68.00;;;;;;5052833;28;20076;-44
2023/12/11 03:14:11;;;;;;;134.40;57.60;;;17.20;68.00;;;;;;5050150;28;20045;-45
2023/12/11 03:16:37;;;;;;;133.50;57.28;;;17.20;68.00;;;;;;5045810;28;20905;-44
2023/12/11 03:19:03;;;;;;;134.13;56.70;;;17.20;68.00;;;;;;5051131;28;20061;-44
2023/12/11 03:21:28;;;;;;;133.93;57.45;;;17.20;68.00;;;;;;5052161;28;20029;-45
2023/12/11 03:23:54;;;;;;;133.43;57.72;;;17.20;68.00;;;;;;5050986;28;20080;-44
2023/12/11 03:26:19;;;;;;;135.38;58.35;;;17.20;68.00;;;;;;5051066;28;20047;-45
2023/12/11 03:28:45;;;;;;;135.43;58.05;;;17.20;67.90;;;;;;5048652;28;20037;-45
2023/12/11 03:31:11;;;;;;;131.75;57.58;;;17.20;67.90;;;;;;5052154;28;20033;-44
2023/12/11 03:33:36;;;;;;;136.48;58.00;;;17.20;68.00;;;;;;5049400;28;20041;-45
2023/12/11 03:36:02;;;;;;;134.35;58.70;;;17.20;68.00;;;;;;5045271;28;20037;-45
2023/12/11 03:38:28;;;;;;;133.45;58.15;;;17.20;68.00;;;;;;5044770;28;20040;-44
2023/12/11 03:40:54;;;;;;;135.00;58.50;;;17.20;68.10;;;;;;5042722;28;20052;-44
2023/12/11 03:43:19;;;;;;;134.77;57.75;;;17.10;68.10;;;;;;5054095;28;20051;-44
2023/12/11 03:45:46;;;;;;;135.32;57.60;;;17.10;68.10;;;;;;5045376;28;20049;-45
2023/12/11 03:48:12;;;;;;;135.48;58.20;;;17.10;68.10;;;;;;5046924;28;20044;-46
2023/12/11 03:50:38;;;;;;;135.10;58.08;;;17.00;68.30;;;;;;5044797;28;20123;-44
2023/12/11 03:53:03;;;;;;;134.68;58.25;;;17.10;68.40;;;;;;5041535;28;20037;-45
2023/12/11 03:55:29;;;;;;;132.65;57.60;;;17.00;68.20;;;;;;5041326;28;20034;-44
2023/12/11 03:57:55;;;;;;;135.23;58.25;;;17.00;68.50;;;;;;5047558;28;20991;-45
2023/12/11 04:00:21;;;;;;;132.93;57.78;;;17.00;68.50;;;;;;5054070;28;20377;-45
2023/12/11 04:02:47;;;;;;;132.70;57.33;;;17.00;68.40;;;;;;5043054;28;20037;-44
2023/12/11 04:05:13;;;;;;;134.80;57.85;;;17.00;68.30;;;;;;5041348;28;20037;-44
2023/12/11 04:07:39;;;;;;;135.57;58.45;;;17.00;68.50;;;;;;5044846;28;20128;-45
2023/12/11 04:10:05;;;;;;;131.65;57.30;;;16.90;68.40;;;;;;5048917;28;20509;-45
2023/12/11 04:12:31;;;;;;;132.98;57.38;;;16.90;68.50;;;;;;5050700;28;20046;-44
2023/12/11 04:14:56;;;;;;;136.02;58.72;;;16.90;68.60;;;;;;5046510;28;20045;-44
2023/12/11 04:17:22;;;;;;;133.27;57.13;;;16.90;68.60;;;;;;5055433;28;20133;-45
2023/12/11 04:19:48;;;;;;;133.98;57.58;;;16.90;68.60;;;;;;5049550;28;20035;-45
2023/12/11 04:22:13;;;;;;;133.10;57.72;;;16.90;68.50;;;;;;5053450;28;20145;-43
2023/12/11 04:24:39;;;;;;;134.50;57.47;;;16.90;68.60;;;;;;5045482;28;20038;-40
2023/12/11 04:27:05;;;;;;;135.60;57.92;;;16.90;68.70;;;;;;5052539;28;20041;-46
2023/12/11 04:29:30;;;;;;;137.55;57.92;;;16.90;68.70;;;;;;5056103;28;20899;-37
2023/12/11 04:31:56;;;;;;;134.23;57.13;;;16.80;68.60;;;;;;5053987;28;20521;-37
2023/12/11 04:34:22;;;;;;;132.45;56.90;;;16.80;68.80;;;;;;5051853;28;20525;-42
2023/12/11 04:36:47;;;;;;;137.20;57.67;;;16.80;68.70;;;;;;5053295;28;20037;-41
2023/12/11 04:39:13;;;;;;;133.60;57.22;;;16.80;68.70;;;;;;5051567;28;20033;-39
2023/12/11 04:41:39;;;;;;;133.10;57.40;;;16.80;68.80;;;;;;5050117;28;20108;-37
2023/12/11 04:44:04;;;;;;;134.68;57.58;;;16.70;68.70;;;;;;5048121;28;20208;-38
2023/12/11 04:46:30;;;;;;;133.18;57.97;;;16.70;68.80;;;;;;5050482;28;20075;-42
2023/12/11 04:48:56;;;;;;;131.43;57.03;;;16.70;69.00;;;;;;5046376;28;20037;-42
2023/12/11 04:51:22;;;;;;;132.65;57.17;;;16.80;68.80;;;;;;5049423;28;20056;-39
2023/12/11 04:53:47;;;;;;;132.43;57.40;;;16.80;68.80;;;;;;5051670;28;20521;-40
2023/12/11 04:56:13;;;;;;;133.43;57.67;;;16.80;69.50;;;;;;5053826;28;20782;-41
2023/12/11 04:58:39;;;;;;;133.43;57.40;;;16.80;68.60;;;;;;5052078;28;20040;-41
2023/12/11 05:01:04;;;;;;;133.82;58.25;;;16.70;68.60;;;;;;5037754;28;20040;-37
2023/12/11 05:03:30;;;;;;;132.43;57.03;;;16.80;68.80;;;;;;5046369;28;20601;-41
2023/12/11 05:05:56;;;;;;;134.73;57.85;;;16.70;68.80;;;;;;5048450;28;20077;-44
2023/12/11 05:08:22;;;;;;;135.73;58.38;;;16.70;68.80;;;;;;5049336;28;20676;-41
2023/12/11 05:10:47;;;;;;;135.30;57.40;;;16.70;69.00;;;;;;5051138;28;20470;-41
2023/12/11 05:13:13;;;;;;;133.90;57.88;;;16.70;68.90;;;;;;5048637;28;21335;-36
2023/12/11 05:15:38;;;;;;;132.98;57.67;;;16.70;69.00;;;;;;5043614;28;20649;-37
2023/12/11 05:18:04;;;;;;;134.57;57.78;;;16.70;69.30;;;;;;5053903;28;20329;-37
2023/12/11 05:20:30;;;;;;;135.00;58.13;;;16.70;69.30;;;;;;5049378;28;20421;-37
2023/12/11 05:22:55;;;;;;;136.27;58.00;;;16.70;69.10;;;;;;5056893;28;20045;-38
2023/12/11 05:25:21;;;;;;;132.27;57.67;;;16.70;69.00;;;;;;5055506;28;20161;-37
2023/12/11 05:27:47;;;;;;;133.23;57.55;;;16.70;69.00;;;;;;5052132;28;20029;-38
2023/12/11 05:30:13;;;;;;;134.52;58.08;;;16.70;68.90;;;;;;5047792;28;20503;-37
2023/12/11 05:32:38;;;;;;;146.50;57.80;;;16.70;68.80;;;;;;5060719;28;20124;-37
2023/12/11 05:35:06;;;;;;;138.27;58.80;;;16.70;68.80;;;;;;5044562;28;20039;-38
2023/12/11 05:37:31;;;;;;;133.57;57.58;;;16.70;68.90;;;;;;5058015;28;20115;-38
2023/12/11 05:39:57;;;;;;;135.27;57.72;;;16.70;69.00;;;;;;5057093;28;20120;-37
2023/12/11 05:42:22;;;;;;;135.35;57.95;;;16.70;69.00;;;;;;5053365;28;20100;-37
2023/12/11 05:44:48;;;;;;;133.70;57.72;;;16.60;68.90;;;;;;5053890;28;20064;-37
2023/12/11 05:47:14;;;;;;;135.05;57.75;;;16.60;68.90;;;;;;5047807;28;20034;-37
2023/12/11 05:49:39;;;;;;;133.32;57.92;;;16.70;68.90;;;;;;5061696;28;20041;-37
2023/12/11 05:52:05;;;;;;;135.77;58.33;;;16.70;69.00;;;;;;5047548;28;20099;-37
2023/12/11 05:54:31;;;;;;;138.00;57.63;;;16.60;68.80;;;;;;5047237;28;20933;-37
2023/12/11 05:56:57;;;;;;;134.85;58.17;;;16.60;68.80;;;;;;5051655;28;20641;-39
2023/12/11 05:59:22;;;;;;;134.25;58.20;;;16.60;68.70;;;;;;5044776;28;20041;-40
2023/12/11 06:01:48;;;;;;;135.75;57.72;;;16.60;68.90;;;;;;5055682;28;20044;-37
2023/12/11 06:04:14;;;;;;;133.85;57.45;;;16.60;68.90;;;;;;5057731;28;20142;-37
2023/12/11 06:06:39;;;;;;;135.38;58.13;;;16.60;69.00;;;;;;5055035;28;20502;-37
2023/12/11 06:09:05;;;;;;;135.30;57.97;;;16.50;68.90;;;;;;5058224;28;20067;-38
2023/12/11 06:11:31;;;;;;;137.90;58.45;;;16.50;69.00;;;;;;5057643;28;20080;-36
2023/12/11 06:13:57;;;;;;;135.45;57.63;;;16.50;69.00;;;;;;5063008;28;20059;-35
2023/12/11 06:16:23;;;;;;;134.18;57.60;;;16.50;69.00;;;;;;5063110;28;20072;-37
2023/12/11 06:18:49;;;;;;;136.35;57.65;;;16.50;68.90;;;;;;5054470;28;20118;-36
2023/12/11 06:21:21;;;;;;;131.93;57.15;;;16.50;69.00;;;;;;5048725;28;20760;-40
2023/12/11 06:23:47;;;;;;;135.63;59.05;;;16.60;69.00;;;;;;5052185;28;20060;-37
2023/12/11 06:26:34;;;;;;;133.35;57.65;;;16.50;68.90;;;;;;5052042;28;20902;-37
2023/12/11 06:29:00;;;;;;;134.88;58.17;;;16.50;68.90;;;;;;5056454;28;20098;-37
2023/12/11 06:31:27;;;;;;;134.13;58.03;;;16.50;69.00;;;;;;5054276;28;20151;-39
2023/12/11 06:33:53;;;;;;;137.25;58.60;;;16.40;68.90;;;;;;5050596;28;20040;-40
2023/12/11 06:36:19;;;;;;;134.15;57.85;;;16.50;69.00;;;;;;5056437;28;20037;-37
2023/12/11 06:38:45;;;;;;;131.45;57.25;;;16.40;68.90;;;;;;5058048;28;20104;-37
2023/12/11 06:41:10;;;;;;;133.88;57.72;;;16.50;69.20;;;;;;5048424;28;20599;-39
2023/12/11 06:43:36;;;;;;;133.52;57.67;;;16.40;69.10;;;;;;5055119;28;20582;-37
2023/12/11 06:46:02;;;;;;;130.88;56.78;;;16.40;69.00;;;;;;5051148;28;20037;-41
2023/12/11 06:48:29;;;;;;;132.43;58.03;;;16.40;69.10;;;;;;5042865;28;20129;-37
2023/12/11 06:50:55;;;;;;;135.35;57.30;;;16.40;69.10;;;;;;5049888;28;20049;-37
2023/12/11 06:53:20;;;;;;;131.52;57.53;;;16.30;69.00;;;;;;5052106;28;20084;-38
2023/12/11 06:55:46;;;;;;;135.80;57.92;;;16.40;69.20;;;;;;5058047;28;20653;-39
2023/12/11 06:58:12;;;;;;;131.15;56.92;;;16.40;69.20;;;;;;5051865;28;20114;-37
2023/12/11 07:00:38;;;;;;;132.77;57.65;;;16.40;69.10;;;;;;5060430;28;20410;-37
2023/12/11 07:03:04;;;;;;;134.63;57.97;;;16.30;69.10;;;;;;5056205;28;20090;-37
2023/12/11 07:05:29;;;;;;;131.88;58.22;;;16.30;69.10;;;;;;5051890;28;20033;-37
2023/12/11 07:07:55;;;;;;;131.93;56.75;;;16.30;69.10;;;;;;5054635;28;20060;-37
2023/12/11 07:10:21;;;;;;;133.52;57.72;;;16.30;69.10;;;;;;5058170;28;20124;-37
2023/12/11 07:12:47;;;;;;;132.98;57.05;;;16.30;69.10;;;;;;5061308;28;20106;-37
2023/12/11 07:15:13;;;;;;;134.00;57.63;;;16.30;69.10;;;;;;5054064;28;20029;-38
2023/12/11 07:17:38;;;;;;;134.10;57.47;;;16.30;69.10;;;;;;5060824;28;20554;-36
2023/12/11 07:20:07;;;;;;;132.48;57.67;;;16.30;69.10;;;;;;5063681;28;20067;-37
2023/12/11 07:22:34;;;;;;;132.05;57.33;;;16.30;69.10;;;;;;5057885;28;21051;-38
2023/12/11 07:25:00;;;;;;;131.95;57.80;;;16.30;69.00;;;;;;5053828;28;20059;-37
2023/12/11 07:27:26;;;;;;;130.93;57.80;;;16.30;69.10;;;;;;5054866;28;20041;-36
2023/12/11 07:29:52;;;;;;;132.57;56.97;;;16.30;69.30;;;;;;5058527;28;20049;-37
2023/12/11 07:32:18;;;;;;;131.55;57.63;;;16.30;69.30;;;;;;5061466;28;20477;-38
2023/12/11 07:34:44;;;;;;;129.80;57.35;;;16.20;69.40;;;;;;5063016;28;20116;-36
2023/12/11 07:37:10;;;;;;;134.80;57.85;;;16.20;69.30;;;;;;5054962;28;20144;-36
2023/12/11 07:39:35;;;;;;;132.35;57.53;;;16.20;69.40;;;;;;5057021;28;20053;-38
2023/12/11 07:42:01;;;;;;;135.20;57.42;;;16.20;69.30;;;;;;5056847;28;20943;-38
2023/12/11 07:44:27;;;;;;;130.48;57.30;;;16.20;69.50;;;;;;5055896;28;20041;-36
2023/12/11 07:46:52;;;;;;;131.48;57.65;;;16.20;69.40;;;;;;5060056;28;20051;-36
2023/12/11 07:49:18;;;;;;;129.52;57.33;;;16.20;69.30;;;;;;5061007;28;20091;-37
2023/12/11 07:51:44;;;;;;;131.68;57.67;;;16.20;69.40;;;;;;5054243;28;20768;-38
2023/12/11 07:54:10;;;;;;;130.98;56.88;;;16.20;69.30;;;;;;5052510;28;20040;-37
2023/12/11 07:56:37;;;;;;;133.52;57.45;;;16.20;69.40;;;;;;5061434;28;20088;-38
2023/12/11 07:59:03;;;;;;;132.32;57.47;;;16.20;69.30;;;;;;5053861;28;20072;-38
2023/12/11 08:01:32;;;;;;;131.90;57.15;;;16.20;69.20;;;;;;5052099;28;20585;-37
2023/12/11 08:03:58;;;;;;;132.65;57.10;;;16.10;69.30;;;;;;5054102;28;20140;-38
2023/12/11 08:06:24;;;;;;;131.27;57.58;;;16.10;69.30;;;;;;5057174;28;20036;-38
2023/12/11 08:08:49;;;;;;;129.73;57.42;;;16.10;69.40;;;;;;5054729;28;20542;-36
2023/12/11 08:11:27;;;;;;;135.30;57.70;;;16.10;69.50;;;;;;5060607;28;20129;-37
2023/12/11 08:13:52;;;;;;;130.85;57.00;;;16.10;69.40;;;;;;5053319;28;20048;-37
2023/12/11 08:16:19;;;;;;;129.95;57.65;;;16.10;69.30;;;;;;5053537;28;20247;-38
2023/12/11 08:18:45;;;;;;;131.20;57.30;;;16.20;69.30;;;;;;5057492;28;20571;-37
2023/12/11 08:21:12;;;;;;;131.13;57.47;;;16.10;69.20;;;;;;5058396;28;20041;-37
2023/12/11 08:23:43;;;;;;;134.75;57.28;;;16.20;69.40;;;;;;5058982;28;20025;-37
2023/12/11 08:26:10;;;;;;;130.10;57.25;;;16.10;69.20;;;;;;5056511;28;20037;-38
2023/12/11 08:28:35;;;;;;;135.05;57.70;;;16.10;69.20;;;;;;5049249;28;20071;-38
2023/12/11 08:31:03;;;;;;;128.45;57.03;;;16.10;69.30;;;;;;5051553;28;20124;-39
2023/12/11 08:33:29;;;;;;;129.90;57.60;;;16.10;69.30;;;;;;5053733;28;20053;-37
2023/12/11 08:35:55;;;;;;;132.82;57.67;;;16.10;69.40;;;;;;5050857;28;20142;-37
2023/12/11 08:38:22;;;;;;;133.00;57.72;;;16.10;69.40;;;;;;5056547;28;20120;-38
2023/12/11 08:40:48;;;;;;;132.38;57.45;;;16.10;69.20;;;;;;5058336;28;20051;-38
2023/12/11 08:43:14;;;;;;;129.25;57.17;;;16.20;69.30;;;;;;5055682;28;20045;-38
2023/12/11 08:45:40;;;;;;;132.98;57.33;;;16.20;69.20;;;;;;5056910;28;20037;-38
2023/12/11 08:48:05;;;;;;;130.82;57.40;;;16.10;69.20;;;;;;5059859;28;20095;-37
2023/12/11 08:50:32;;;;;;;130.95;57.15;;;16.10;69.20;;;;;;5059693;28;20033;-37
2023/12/11 08:53:00;;;;;;;130.70;57.10;;;16.10;69.20;;;;;;5058575;28;20427;-38
2023/12/11 08:55:25;;;;;;;132.35;56.97;;;16.10;69.20;;;;;;5055505;28;20944;-39
2023/12/11 08:57:51;;;;;;;133.73;57.67;;;16.10;69.20;;;;;;5051365;28;20068;-37
2023/12/11 09:00:17;;;;;;;132.32;57.40;;;16.20;69.30;;;;;;5052768;28;20045;-39
2023/12/11 09:02:43;;;;;;;130.23;57.50;;;16.10;69.10;;;;;;5051867;28;20373;-37
2023/12/11 09:05:08;;;;;;;129.63;57.00;;;16.10;69.10;;;;;;5059142;28;20033;-37
2023/12/11 09:07:34;;;;;;;130.73;57.17;;;16.20;69.10;;;;;;5051484;28;20087;-38
2023/12/11 09:10:01;;;;;;;129.85;56.95;;;16.20;69.10;;;;;;5056510;28;20048;-38
2023/12/11 09:12:27;;;;;;;129.68;56.53;;;16.20;69.10;;;;;;5054966;28;20041;-39
2023/12/11 09:14:53;;;;;;;129.48;56.85;;;16.10;69.00;;;;;;5059821;28;20145;-38
2023/12/11 09:17:18;;;;;;;130.32;57.30;;;16.20;69.10;;;;;;5058982;28;20529;-37
2023/12/11 09:19:44;;;;;;;129.23;57.03;;;16.10;69.00;;;;;;5060203;28;20275;-40
2023/12/11 09:22:11;;;;;;;129.75;56.85;;;16.20;69.10;;;;;;5057038;28;20029;-37
2023/12/11 09:24:37;;;;;;;128.40;56.53;;;16.20;69.10;;;;;;5055758;28;20041;-37
2023/12/11 09:27:03;;;;;;;129.30;56.60;;;16.20;69.00;;;;;;5054045;28;20047;-37
2023/12/11 09:29:29;;;;;;;129.23;57.15;;;16.20;69.10;;;;;;5061167;28;20167;-37
2023/12/11 09:31:55;;;;;;;130.52;57.08;;;16.20;69.10;;;;;;5060078;28;20048;-37
2023/12/11 09:34:21;;;;;;;131.38;56.80;;;16.20;69.00;;;;;;5060746;28;20086;-37
2023/12/11 09:36:46;;;;;;;130.38;57.20;;;16.20;69.00;;;;;;5061742;28;20083;-37
2023/12/11 09:39:12;;;;;;;130.48;57.35;;;16.20;68.90;;;;;;5055791;28;20033;-38
2023/12/11 09:41:39;;;;;;;128.05;57.15;;;16.20;68.80;;;;;;5059588;28;20108;-39
2023/12/11 09:44:05;;;;;;;127.88;56.15;;;16.20;68.80;;;;;;5063346;28;21260;-38
2023/12/11 09:46:38;;;;;;;130.15;57.28;;;16.30;68.80;;;;;;5058680;28;20143;-38
2023/12/11 09:49:04;;;;;;;129.13;56.97;;;16.20;68.70;;;;;;5051888;28;20050;-39
2023/12/11 09:51:31;;;;;;;129.63;56.58;;;16.20;68.80;;;;;;5062945;28;20040;-37
2023/12/11 09:53:57;;;;;;;130.25;56.85;;;16.20;68.80;;;;;;5053483;28;20041;-39
2023/12/11 09:56:23;;;;;;;128.15;56.90;;;16.20;68.80;;;;;;5058084;28;20708;-38
2023/12/11 09:58:51;;;;;;;131.48;57.05;;;16.20;68.80;;;;;;5058756;28;20044;-38
2023/12/11 10:01:18;;;;;;;126.90;55.70;;;16.20;68.80;;;;;;5058806;28;20033;-42
2023/12/11 10:03:43;;;;;;;129.55;56.03;;;16.20;68.80;;;;;;5058598;28;20087;-37
2023/12/11 10:06:09;;;;;;;127.90;56.45;;;16.20;68.80;;;;;;5060142;28;20487;-39
2023/12/11 10:08:47;;;;;;;129.20;56.67;;;16.20;68.80;;;;;;5058228;28;20049;-37
2023/12/11 10:11:14;;;;;;;132.93;57.47;;;16.20;68.80;;;;;;5052326;28;20054;-37
2023/12/11 10:13:41;;;;;;;128.27;56.88;;;16.20;68.70;;;;;;5058181;28;20087;-37
2023/12/11 10:16:26;;;;;;;128.23;56.88;;;16.20;68.70;;;;;;5059099;28;20035;-37
2023/12/11 10:18:52;;;;;;;130.27;57.03;;;16.30;68.70;;;;;;5052658;28;20041;-38
2023/12/11 10:21:17;;;;;;;130.50;56.75;;;16.30;68.70;;;;;;5058875;28;20045;-37
2023/12/11 10:23:43;;;;;;;132.02;57.38;;;16.30;68.70;;;;;;5057498;28;20110;-37
2023/12/11 10:26:09;;;;;;;127.50;56.53;;;16.30;68.70;;;;;;5060158;28;20095;-38
2023/12/11 10:28:35;;;;;;;130.02;56.65;;;16.30;68.70;;;;;;5061283;28;20045;-38
2023/12/11 10:31:04;;;;;;;128.27;56.70;;;16.30;68.60;;;;;;5056162;28;20930;-39
2023/12/11 10:33:30;;;;;;;128.90;56.83;;;16.30;68.50;;;;;;5055726;28;20123;-38
2023/12/11 10:36:13;;;;;;;130.35;57.40;;;16.30;68.50;;;;;;5056877;28;20242;-38
2023/12/11 10:38:39;;;;;;;128.85;56.20;;;16.30;68.50;;;;;;5057443;28;20040;-37
2023/12/11 10:41:05;;;;;;;129.27;57.13;;;16.30;68.50;;;;;;5056717;28;20033;-39
2023/12/11 10:43:44;;;;;;;130.30;56.95;;;16.30;68.50;;;;;;5053650;28;20206;-37
2023/12/11 10:46:10;;;;;;;129.00;57.42;;;16.30;68.50;;;;;;5061931;28;20037;-37
2023/12/11 10:48:36;;;;;;;127.45;56.42;;;16.30;68.60;;;;;;5061305;28;20049;-37
2023/12/11 10:51:05;;;;;;;129.30;56.70;;;16.30;68.40;;;;;;5059639;28;20030;-37
2023/12/11 10:53:33;;;;;;;128.25;57.03;;;16.30;68.40;;;;;;5055880;28;20041;-37
2023/12/11 10:56:01;;;;;;;129.15;56.92;;;16.30;68.40;;;;;;5050698;28;20048;-38
2023/12/11 10:58:27;;;;;;;128.63;56.47;;;16.30;68.40;;;;;;5058121;28;20616;-38
2023/12/11 11:00:56;;;;;;;131.80;57.42;;;16.30;68.20;;;;;;5054194;28;20565;-37
2023/12/11 11:03:23;;;;;;;131.15;57.70;;;16.30;68.30;;;;;;5054118;28;20044;-37
2023/12/11 11:05:51;;;;;;;128.52;56.75;;;16.40;68.30;;;;;;5063451;28;20068;-37
2023/12/11 11:08:49;;;;;;;;;;;;;;;;;;;;;
2023/12/11 11:11:24;;;;;;;128.57;56.50;;;16.40;68.40;;;;;;5053486;28;33547;-38
2023/12/11 11:13:59;;;;;;;129.30;56.65;;;16.30;68.20;;;;;;5058113;28;20037;-38
2023/12/11 11:16:52;;;;;;;130.68;57.90;;;16.40;68.40;;;;;;5059281;28;20155;-37
2023/12/11 11:19:18;;;;;;;127.78;57.13;;;16.40;68.20;;;;;;5060429;28;20090;-37
2023/12/11 11:22:06;;;;;;;128.27;56.50;;;16.40;68.00;;;;;;5062059;28;20031;-37
2023/12/11 11:24:37;;;;;;;127.60;56.47;;;16.40;68.00;;;;;;5054741;28;20041;-39
2023/12/11 11:27:09;;;;;;;127.75;56.80;;;16.50;68.00;;;;;;5054592;28;20033;-38
2023/12/11 11:29:42;;;;;;;130.35;56.92;;;16.40;68.10;;;;;;5063434;28;20041;-39
2023/12/11 11:32:09;;;;;;;129.18;57.28;;;16.50;68.00;;;;;;5060230;28;20120;-36
2023/12/11 11:34:40;;;;;;;127.75;56.50;;;16.50;67.80;;;;;;5059495;28;20025;-37
2023/12/11 11:37:06;;;;;;;;;;;16.50;67.90;;;;;;5052924;28;20036;-36
2023/12/11 11:40:04;;;;;;;129.27;57.33;;;16.50;67.80;;;;;;5053793;28;19921;-37
2023/12/11 11:42:34;;;;;;;128.13;57.00;;;16.50;67.80;;;;;;5060107;28;20048;-36
2023/12/11 11:45:07;;;;;;;129.88;57.10;;;16.50;67.60;;;;;;5057761;28;20237;-36
2023/12/11 11:47:34;;;;;;;128.02;56.95;;;16.50;67.80;;;;;;5058023;28;20684;-36
2023/12/11 11:53:22;;;;;;;131.02;57.70;;;16.50;67.80;;;;;;5052809;28;20055;-37
2023/12/11 11:55:48;;;;;;;128.70;56.58;;;16.50;67.80;;;;;;5048560;28;20135;-36
2023/12/11 11:58:14;;;;;;;128.95;56.65;;;16.40;67.80;;;;;;5050467;28;20038;-36
2023/12/11 12:00:40;;;;;;;128.35;56.75;;;16.50;67.90;;;;;;5060228;28;20919;-35
2023/12/11 12:03:08;;;;;;;128.75;57.20;;;16.50;67.80;;;;;;5055555;28;20118;-36
2023/12/11 12:05:38;;;;;;;131.52;57.63;;;16.50;67.70;;;;;;5047831;28;21482;-36
2023/12/11 12:08:09;;;;;;;128.98;56.17;;;16.50;67.90;;;;;;5054336;28;20037;-37
2023/12/11 12:10:35;;;;;;;130.45;57.50;;;16.50;67.70;;;;;;5051938;28;20047;-36
2023/12/11 12:13:01;;;;;;;127.97;57.00;;;16.50;67.80;;;;;;5052275;28;20427;-36
2023/12/11 12:15:27;;;;;;;130.38;57.55;;;16.50;67.70;;;;;;5053517;28;20033;-36
2023/12/11 12:18:04;;;;;;;128.77;56.90;;;16.50;67.60;;;;;;5058800;28;20044;-35
2023/12/11 12:20:29;;;;;;;129.35;57.22;;;16.50;67.40;;;;;;5059610;28;20136;-36